createdAt,value
2022-08-10T00:01:37.868Z,37.52
2022-08-10T00:04:06.161Z,37.79
2022-08-10T00:06:34.464Z,37.74
2022-08-10T00:09:02.444Z,37.94
2022-08-10T00:11:30.505Z,37.84
2022-08-10T00:13:58.480Z,37.92
2022-08-10T00:16:30.269Z,37.65
2022-08-10T00:18:58.229Z,37.72
2022-08-10T00:21:27.054Z,37.57
2022-08-10T00:23:55.362Z,37.78
2022-08-10T00:26:23.414Z,37.68
2022-08-10T00:28:51.441Z,38.00
2022-08-10T00:31:19.584Z,38.13
2022-08-10T00:33:48.978Z,37.80
2022-08-10T00:36:16.972Z,37.75
2022-08-10T00:38:44.934Z,37.85
2022-08-10T00:41:12.904Z,38.09
2022-08-10T00:43:40.890Z,38.40
2022-08-10T00:46:08.956Z,38.00
2022-08-10T00:48:36.934Z,38.08
2022-08-10T00:51:06.784Z,38.32
2022-08-10T00:53:34.893Z,38.02
2022-08-10T00:57:14.669Z,38.36
2022-08-10T00:58:50.885Z,38.18
2022-08-10T01:02:09.963Z,38.18
2022-08-10T01:04:36.553Z,38.24
2022-08-10T01:07:20.844Z,38.12
2022-08-10T01:09:59.626Z,38.68
2022-08-10T01:12:40.723Z,38.44
2022-08-10T01:15:19.899Z,38.64
2022-08-10T01:17:53.747Z,38.35
2022-08-10T01:20:36.937Z,38.70
2022-08-10T01:23:38.021Z,38.75
2022-08-10T01:26:37.220Z,38.58
2022-08-10T01:29:43.243Z,38.61
2022-08-10T01:32:15.059Z,38.70
2022-08-10T01:34:50.640Z,39.03
2022-08-10T01:37:24.124Z,38.92
2022-08-10T01:39:58.103Z,38.86
2022-08-10T01:42:27.009Z,38.81
2022-08-10T01:44:57.829Z,38.92
2022-08-10T01:47:49.418Z,39.00
2022-08-10T01:50:23.618Z,39.29
2022-08-10T01:52:54.349Z,39.35
2022-08-10T01:55:24.116Z,39.30
2022-08-10T01:57:54.468Z,39.37
2022-08-10T02:00:26.055Z,39.44
2022-08-10T02:02:55.481Z,39.58
2022-08-10T02:05:29.445Z,39.23
2022-08-10T02:08:00.892Z,39.69
2022-08-10T02:10:30.805Z,39.69
2022-08-10T02:12:59.910Z,39.32
2022-08-10T02:15:34.622Z,39.48
2022-08-10T02:18:06.268Z,39.31
2022-08-10T02:20:37.694Z,39.55
2022-08-10T02:23:09.600Z,39.77
2022-08-10T02:25:40.581Z,39.77
2022-08-10T02:28:29.855Z,39.88
2022-08-10T02:31:06.552Z,39.89
2022-08-10T02:33:38.065Z,39.66
2022-08-10T02:36:09.901Z,40.01
2022-08-10T02:38:59.329Z,39.96
2022-08-10T02:45:02.153Z,39.67
2022-08-10T02:45:20.483Z,39.68
2022-08-10T02:47:23.703Z,40.12
2022-08-10T02:50:00.871Z,39.85
2022-08-10T02:52:36.354Z,39.90
2022-08-10T02:55:17.781Z,39.89
2022-08-10T02:58:16.833Z,40.32
2022-08-10T03:00:45.941Z,40.40
2022-08-10T03:03:21.077Z,40.05
2022-08-10T03:05:52.331Z,40.36
2022-08-10T03:08:23.788Z,40.23
2022-08-10T03:10:53.616Z,40.02
2022-08-10T03:13:24.218Z,40.17
2022-08-10T03:15:53.292Z,40.56
2022-08-10T03:18:24.719Z,40.54
2022-08-10T03:20:54.001Z,40.38
2022-08-10T03:23:24.965Z,40.53
2022-08-10T03:25:56.945Z,40.67
2022-08-10T03:28:26.489Z,40.53
2022-08-10T03:30:55.309Z,40.53
2022-08-10T03:33:28.410Z,40.88
2022-08-10T03:36:42.275Z,40.86
2022-08-10T03:38:48.586Z,40.55
2022-08-10T03:41:19.590Z,40.94
2022-08-10T03:43:49.909Z,41.01
2022-08-10T03:46:22.390Z,41.04
2022-08-10T03:48:56.950Z,40.75
2022-08-10T03:51:27.193Z,40.89
2022-08-10T03:54:05.889Z,41.16
2022-08-10T03:56:36.570Z,41.01
2022-08-10T03:59:05.715Z,41.31
2022-08-10T04:02:46.490Z,41.23
2022-08-10T04:04:25.444Z,41.32
2022-08-10T04:06:55.615Z,41.03
2022-08-10T04:09:29.725Z,41.03
2022-08-10T04:12:13.313Z,41.26
2022-08-10T04:14:49.713Z,41.21
2022-08-10T04:17:59.393Z,41.28
2022-08-10T04:20:15.317Z,41.34
2022-08-10T04:22:45.809Z,41.49
2022-08-10T04:25:16.188Z,41.39
2022-08-10T04:27:45.097Z,41.70
2022-08-10T04:30:13.545Z,41.47
2022-08-10T04:32:42.459Z,41.94
2022-08-10T04:35:12.484Z,41.81
2022-08-10T04:37:47.215Z,41.49
2022-08-10T04:40:28.799Z,41.84
2022-08-10T04:43:02.318Z,41.94
2022-08-10T04:45:48.431Z,41.87
2022-08-10T04:48:40.414Z,41.67
2022-08-10T04:51:18.351Z,42.13
2022-08-10T04:54:05.634Z,42.17
2022-08-10T04:56:36.772Z,42.05
2022-08-10T04:59:06.225Z,42.13
2022-08-10T05:02:09.810Z,41.92
2022-08-10T05:04:37.477Z,42.29
2022-08-10T05:07:10.008Z,42.05
2022-08-10T05:10:02.781Z,42.03
2022-08-10T05:12:27.192Z,42.43
2022-08-10T05:14:55.297Z,42.25
2022-08-10T05:17:23.879Z,42.24
2022-08-10T05:20:01.729Z,42.59
2022-08-10T05:22:36.402Z,42.68
2022-08-10T05:25:05.524Z,42.40
2022-08-10T05:27:33.644Z,42.53
2022-08-10T05:30:03.413Z,42.46
2022-08-10T05:32:32.465Z,42.58
2022-08-10T05:35:20.585Z,42.61
2022-08-10T05:38:10.858Z,42.54
2022-08-10T05:40:46.932Z,42.93
2022-08-10T05:43:17.883Z,42.88
2022-08-10T05:46:18.084Z,42.90
2022-08-10T05:48:54.222Z,42.54
2022-08-10T05:51:24.118Z,42.92
2022-08-10T05:54:03.614Z,42.87
2022-08-10T05:56:55.207Z,42.60
2022-08-10T06:00:34.195Z,43.00
2022-08-10T06:02:33.398Z,42.96
2022-08-10T06:05:08.261Z,42.51
2022-08-10T06:07:40.160Z,42.54
2022-08-10T06:10:13.880Z,42.48
2022-08-10T06:13:09.346Z,42.91
2022-08-10T06:15:56.445Z,42.98
2022-08-10T06:18:24.979Z,42.69
2022-08-10T06:20:53.792Z,42.86
2022-08-10T06:23:22.219Z,42.51
2022-08-10T06:26:11.331Z,42.50
2022-08-10T06:28:43.884Z,42.57
2022-08-10T06:31:47.077Z,42.40
2022-08-10T06:34:20.466Z,42.63
2022-08-10T06:36:49.727Z,42.49
2022-08-10T06:39:32.970Z,42.58
2022-08-10T06:42:14.700Z,42.13
2022-08-10T06:45:00.432Z,42.41
2022-08-10T06:47:35.016Z,42.43
2022-08-10T06:50:09.468Z,41.99
2022-08-10T06:52:39.304Z,42.09
2022-08-10T06:55:11.289Z,42.02
2022-08-10T06:57:42.581Z,42.02
2022-08-10T07:00:18.364Z,42.28
2022-08-10T07:02:52.852Z,42.25
2022-08-10T07:05:23.354Z,41.91
2022-08-10T07:07:53.307Z,42.16
2022-08-10T07:10:25.041Z,41.94
2022-08-10T07:13:12.395Z,42.18
2022-08-10T07:15:57.037Z,41.95
2022-08-10T07:18:31.161Z,41.87
2022-08-10T07:21:02.119Z,41.94
2022-08-10T07:23:55.515Z,42.19
2022-08-10T07:26:20.974Z,41.77
2022-08-10T07:28:52.100Z,42.07
2022-08-10T07:31:49.297Z,42.17
2022-08-10T07:34:10.757Z,42.28
2022-08-10T07:36:41.839Z,42.22
2022-08-10T07:39:12.319Z,42.23
2022-08-10T07:41:43.427Z,41.85
2022-08-10T07:44:14.209Z,41.87
2022-08-10T07:46:47.077Z,41.68
2022-08-10T07:49:20.229Z,41.79
2022-08-10T07:51:54.734Z,41.67
2022-08-10T07:54:26.305Z,42.01
2022-08-10T07:57:00.759Z,41.75
2022-08-10T07:59:36.953Z,41.81
2022-08-10T08:02:07.467Z,41.80
2022-08-10T08:04:36.470Z,41.83
2022-08-10T08:07:04.632Z,41.85
2022-08-10T08:09:34.757Z,42.17
2022-08-10T08:12:03.983Z,41.76
2022-08-10T08:14:35.045Z,42.00
2022-08-10T08:17:03.238Z,42.14
2022-08-10T08:19:36.077Z,41.81
2022-08-10T08:24:10.564Z,42.19
2022-08-10T08:25:00.446Z,41.81
2022-08-10T08:27:30.382Z,41.88
2022-08-10T08:30:01.431Z,42.10
2022-08-10T08:32:32.555Z,42.03
2022-08-10T08:35:04.104Z,41.90
2022-08-10T08:38:31.803Z,42.16
2022-08-10T08:40:26.010Z,42.13
2022-08-10T08:43:10.613Z,42.30
2022-08-10T08:46:01.296Z,42.48
2022-08-10T08:48:57.942Z,43.13
2022-08-10T08:52:09.381Z,42.94
2022-08-10T08:54:38.063Z,42.92
2022-08-10T08:57:12.574Z,42.88
2022-08-10T09:00:02.078Z,42.66
2022-08-10T09:02:54.684Z,42.56
2022-08-10T09:05:59.614Z,42.42
2022-08-10T09:08:45.355Z,42.64
2022-08-10T09:11:28.144Z,42.77
2022-08-10T09:14:03.000Z,42.43
2022-08-10T09:16:39.957Z,42.54
2022-08-10T09:19:19.794Z,42.44
2022-08-10T09:22:17.553Z,42.12
2022-08-10T09:24:53.129Z,42.42
2022-08-10T09:27:23.896Z,42.43
2022-08-10T09:29:56.620Z,42.05
2022-08-10T09:36:14.521Z,41.93
2022-08-10T09:36:28.809Z,42.06
2022-08-10T09:38:48.631Z,42.01
2022-08-10T09:41:26.343Z,41.87
2022-08-10T09:44:02.788Z,41.67
2022-08-10T09:46:47.764Z,41.72
2022-08-10T09:49:48.496Z,41.65
2022-08-10T09:52:18.742Z,41.65
2022-08-10T09:55:12.569Z,41.44
2022-08-10T09:57:46.887Z,41.53
2022-08-10T10:00:18.953Z,41.78
2022-08-10T10:03:02.999Z,41.58
2022-08-10T10:05:51.311Z,41.41
2022-08-10T10:08:32.297Z,41.70
2022-08-10T10:11:13.130Z,41.18
2022-08-10T10:14:03.729Z,41.09
2022-08-10T10:16:42.968Z,40.80
2022-08-10T10:19:25.776Z,40.93
2022-08-10T10:22:09.796Z,40.83
2022-08-10T10:24:46.863Z,40.78
2022-08-10T10:27:26.831Z,41.04
2022-08-10T10:30:01.960Z,40.72
2022-08-10T10:32:41.038Z,40.70
2022-08-10T10:35:22.052Z,40.57
2022-08-10T10:38:00.822Z,40.98
2022-08-10T10:40:45.006Z,40.42
2022-08-10T10:43:29.546Z,40.49
2022-08-10T10:46:05.570Z,40.91
2022-08-10T10:48:41.518Z,40.47
2022-08-10T10:51:17.523Z,40.91
2022-08-10T10:53:50.941Z,40.50
2022-08-10T10:56:31.201Z,40.52
2022-08-10T10:59:56.017Z,40.77
2022-08-10T11:02:18.610Z,40.38
2022-08-10T11:04:59.011Z,40.54
2022-08-10T11:07:35.402Z,41.05
2022-08-10T11:10:31.954Z,41.58
2022-08-10T11:14:22.958Z,41.73
2022-08-10T11:16:02.538Z,41.87
2022-08-10T11:18:40.307Z,41.54
2022-08-10T11:21:15.199Z,41.54
2022-08-10T11:24:46.840Z,41.58
2022-08-10T11:26:47.714Z,41.72
2022-08-10T11:29:23.724Z,41.65
2022-08-10T11:31:58.946Z,41.37
2022-08-10T11:34:48.238Z,41.28
2022-08-10T11:37:28.159Z,40.93
2022-08-10T11:40:00.425Z,40.67
2022-08-10T11:42:40.602Z,40.83
2022-08-10T11:45:14.392Z,40.43
2022-08-10T11:47:47.946Z,40.66
2022-08-10T11:50:22.978Z,40.49
2022-08-10T11:53:01.259Z,40.46
2022-08-10T11:55:33.055Z,40.80
2022-08-10T11:58:25.470Z,40.98
2022-08-10T12:00:56.212Z,40.93
2022-08-10T12:03:25.745Z,41.49
2022-08-10T12:05:56.069Z,41.99
2022-08-10T12:10:04.950Z,42.08
2022-08-10T12:11:24.160Z,42.57
2022-08-10T12:14:20.791Z,42.67
2022-08-10T12:16:53.929Z,42.95
2022-08-10T12:19:28.856Z,42.88
2022-08-10T12:22:05.916Z,43.26
2022-08-10T12:24:41.133Z,43.13
2022-08-10T12:27:13.145Z,43.53
2022-08-10T12:29:47.534Z,43.76
2022-08-10T12:32:25.882Z,44.00
2022-08-10T12:35:00.981Z,44.36
2022-08-10T12:37:34.743Z,44.26
2022-08-10T12:40:34.680Z,44.83
2022-08-10T12:44:05.744Z,45.06
2022-08-10T12:46:06.475Z,45.03
2022-08-10T12:48:40.492Z,46.22
2022-08-10T12:51:16.058Z,46.46
2022-08-10T12:53:51.237Z,46.91
2022-08-10T12:56:25.412Z,47.06
2022-08-10T12:58:57.201Z,47.33
2022-08-10T13:02:07.727Z,47.52
2022-08-10T13:04:32.664Z,47.41
2022-08-10T13:07:02.733Z,47.89
2022-08-10T13:09:32.579Z,47.95
2022-08-10T13:12:38.825Z,47.44
2022-08-10T13:14:55.506Z,46.85
2022-08-10T13:17:38.627Z,47.02
2022-08-10T13:20:20.487Z,46.51
2022-08-10T13:22:50.987Z,45.78
2022-08-10T13:25:24.405Z,45.84
2022-08-10T13:28:01.130Z,45.85
2022-08-10T13:30:50.641Z,45.90
2022-08-10T13:34:41.631Z,45.49
2022-08-10T13:36:11.131Z,45.19
2022-08-10T13:38:40.996Z,45.10
2022-08-10T13:41:11.231Z,44.89
2022-08-10T13:43:48.838Z,44.86
2022-08-10T13:46:22.661Z,44.96
2022-08-10T13:48:53.344Z,45.00
2022-08-10T13:51:54.170Z,45.07
2022-08-10T13:54:18.782Z,44.77
2022-08-10T13:56:48.890Z,44.51
2022-08-10T13:59:17.619Z,44.76
2022-08-10T14:01:50.452Z,45.11
2022-08-10T14:04:19.965Z,45.05
2022-08-10T14:06:56.235Z,45.14
2022-08-10T14:09:29.502Z,45.10
2022-08-10T14:11:58.816Z,45.02
2022-08-10T14:14:29.019Z,44.81
2022-08-10T14:16:58.365Z,44.45
2022-08-10T14:19:29.046Z,44.26
2022-08-10T14:21:59.188Z,43.90
2022-08-10T14:24:29.278Z,43.77
2022-08-10T14:27:05.960Z,43.64
2022-08-10T14:29:41.863Z,43.38
2022-08-10T14:32:11.625Z,43.23
2022-08-10T14:36:08.398Z,42.83
2022-08-10T14:37:38.117Z,42.62
2022-08-10T14:40:09.218Z,42.84
2022-08-10T14:42:43.850Z,42.57
2022-08-10T14:45:19.598Z,42.69
2022-08-10T14:47:52.990Z,42.43
2022-08-10T14:50:32.699Z,42.30
2022-08-10T14:53:09.828Z,42.41
2022-08-10T14:55:58.743Z,42.27
2022-08-10T14:58:29.972Z,42.20
2022-08-10T15:01:00.060Z,42.12
2022-08-10T15:04:01.146Z,42.48
2022-08-10T15:06:30.767Z,42.46
2022-08-10T15:09:18.738Z,42.19
2022-08-10T15:12:13.486Z,42.35
2022-08-10T15:14:44.754Z,42.54
2022-08-10T15:17:17.177Z,41.88
2022-08-10T15:20:04.068Z,41.88
2022-08-10T15:22:38.873Z,42.31
2022-08-10T15:25:17.865Z,42.29
2022-08-10T15:27:54.510Z,41.54
2022-08-10T15:30:31.117Z,41.45
2022-08-10T15:33:21.413Z,42.10
2022-08-10T15:36:27.248Z,42.14
2022-08-10T15:39:00.789Z,42.38
2022-08-10T15:41:57.441Z,42.51
2022-08-10T15:44:38.457Z,42.43
2022-08-10T15:47:11.981Z,42.54
2022-08-10T15:49:49.094Z,42.87
2022-08-10T15:52:39.390Z,42.72
2022-08-10T15:55:44.144Z,42.64
2022-08-10T15:58:08.082Z,42.33
2022-08-10T16:00:40.943Z,42.46
2022-08-10T16:03:15.503Z,42.09
2022-08-10T16:06:01.532Z,42.13
2022-08-10T16:08:56.631Z,42.02
2022-08-10T16:11:38.340Z,41.94
2022-08-10T16:14:20.506Z,41.65
2022-08-10T16:16:54.240Z,41.62
2022-08-10T16:19:25.499Z,41.94
2022-08-10T16:22:00.008Z,41.60
2022-08-10T16:24:32.326Z,41.72
2022-08-10T16:27:04.879Z,41.37
2022-08-10T16:29:56.102Z,41.19
2022-08-10T16:32:26.684Z,41.40
2022-08-10T16:34:56.479Z,41.53
2022-08-10T16:37:57.733Z,41.45
2022-08-10T16:40:23.875Z,41.19
2022-08-10T16:42:53.757Z,41.13
2022-08-10T16:45:30.218Z,41.04
2022-08-10T16:47:59.314Z,41.27
2022-08-10T16:50:30.788Z,40.94
2022-08-10T16:53:02.250Z,40.99
2022-08-10T16:55:47.447Z,41.14
2022-08-10T16:58:20.671Z,40.87
2022-08-10T17:00:51.197Z,41.00
2022-08-10T17:04:07.228Z,40.99
2022-08-10T17:06:20.333Z,40.91
2022-08-10T17:08:52.493Z,40.87
2022-08-10T17:11:23.268Z,40.62
2022-08-10T17:13:51.566Z,40.80
2022-08-10T17:16:21.788Z,40.81
2022-08-10T17:18:51.051Z,40.73
2022-08-10T17:21:22.158Z,40.95
2022-08-10T17:23:53.080Z,40.95
2022-08-10T17:26:35.281Z,41.24
2022-08-10T17:29:17.061Z,40.95
2022-08-10T17:32:06.529Z,41.26
2022-08-10T17:34:39.061Z,41.10
2022-08-10T17:37:14.423Z,41.16
2022-08-10T17:39:46.657Z,41.17
2022-08-10T17:42:21.250Z,41.00
2022-08-10T17:44:50.846Z,41.16
2022-08-10T17:47:22.006Z,40.82
2022-08-10T17:49:55.423Z,40.83
2022-08-10T17:52:26.193Z,41.15
2022-08-10T17:55:02.003Z,40.91
2022-08-10T17:57:35.974Z,40.72
2022-08-10T18:00:07.098Z,40.76
2022-08-10T18:02:40.282Z,40.93
2022-08-10T18:05:10.479Z,40.97
2022-08-10T18:07:44.753Z,40.88
2022-08-10T18:10:18.747Z,40.82
2022-08-10T18:12:50.002Z,40.76
2022-08-10T18:15:22.162Z,40.91
2022-08-10T18:17:59.224Z,40.80
2022-08-10T18:20:34.719Z,40.68
2022-08-10T18:23:03.933Z,40.74
2022-08-10T18:25:34.667Z,40.75
2022-08-10T18:28:06.146Z,40.42
2022-08-10T18:30:45.510Z,40.58
2022-08-10T18:33:16.382Z,40.66
2022-08-10T18:35:46.716Z,40.59
2022-08-10T18:38:17.123Z,40.62
2022-08-10T18:40:54.026Z,40.45
2022-08-10T18:44:07.591Z,40.45
2022-08-10T18:46:20.956Z,40.43
2022-08-10T18:48:55.254Z,40.58
2022-08-10T18:51:27.086Z,40.69
2022-08-10T18:53:58.841Z,40.76
2022-08-10T18:56:41.281Z,40.56
2022-08-10T18:59:28.407Z,40.60
2022-08-10T19:02:08.441Z,40.52
2022-08-10T19:04:57.650Z,40.78
2022-08-10T19:07:44.918Z,40.65
2022-08-10T19:10:27.668Z,40.62
2022-08-10T19:13:02.153Z,40.52
2022-08-10T19:15:40.093Z,40.65
2022-08-10T19:18:21.060Z,40.63
2022-08-10T19:20:56.651Z,40.95
2022-08-10T19:23:37.228Z,40.89
2022-08-10T19:26:32.945Z,40.90
2022-08-10T19:30:10.637Z,41.24
2022-08-10T19:32:20.889Z,41.39
2022-08-10T19:34:59.428Z,41.58
2022-08-10T19:37:38.742Z,41.94
2022-08-10T19:40:44.279Z,41.73
2022-08-10T19:43:30.967Z,41.82
2022-08-10T19:46:12.334Z,41.86
2022-08-10T19:48:48.825Z,42.03
2022-08-10T19:51:24.194Z,41.71
2022-08-10T19:54:05.103Z,41.94
2022-08-10T19:56:47.042Z,41.78
2022-08-10T20:00:16.305Z,41.53
2022-08-10T20:02:25.787Z,41.89
2022-08-10T20:05:01.389Z,41.48
2022-08-10T20:07:37.405Z,41.76
2022-08-10T20:10:12.755Z,41.36
2022-08-10T20:12:48.789Z,41.37
2022-08-10T20:15:26.164Z,41.66
2022-08-10T20:17:59.776Z,41.44
2022-08-10T20:20:36.798Z,41.65
2022-08-10T20:23:16.985Z,41.29
2022-08-10T20:25:52.247Z,41.34
2022-08-10T20:28:29.364Z,41.57
2022-08-10T20:31:07.549Z,41.66
2022-08-10T20:33:42.418Z,41.54
2022-08-10T20:36:21.232Z,41.59
2022-08-10T20:38:58.589Z,41.60
2022-08-10T20:41:43.629Z,41.66
2022-08-10T20:44:26.022Z,41.51
2022-08-10T20:47:00.482Z,41.52
2022-08-10T20:49:37.358Z,41.42
2022-08-10T20:52:07.848Z,41.68
2022-08-10T20:54:41.285Z,41.56
2022-08-10T20:57:55.252Z,41.49
2022-08-10T21:00:23.700Z,41.64
2022-08-10T21:03:15.926Z,41.82
2022-08-10T21:06:00.449Z,41.93
2022-08-10T21:08:42.925Z,41.83
2022-08-10T21:11:23.042Z,41.94
2022-08-10T21:14:08.850Z,41.92
2022-08-10T21:16:59.683Z,41.64
2022-08-10T21:19:55.581Z,41.70
2022-08-10T21:22:29.132Z,41.89
2022-08-10T21:25:02.228Z,41.67
2022-08-10T21:28:07.899Z,41.91
2022-08-10T21:33:46.222Z,41.79
2022-08-10T21:36:23.251Z,41.96
2022-08-10T21:38:58.301Z,41.94
2022-08-10T21:41:58.915Z,41.89
2022-08-10T21:45:08.872Z,42.18
2022-08-10T21:48:17.158Z,42.27
2022-08-10T21:51:14.624Z,41.97
2022-08-10T21:54:07.715Z,41.94
2022-08-10T21:56:59.489Z,42.45
2022-08-10T21:59:56.267Z,42.10
2022-08-10T22:02:50.499Z,42.61
2022-08-10T22:05:43.713Z,42.67
2022-08-10T22:08:33.558Z,42.36
2022-08-10T22:11:21.849Z,42.37
2022-08-10T22:14:09.512Z,42.44
2022-08-10T22:17:03.750Z,42.40
2022-08-10T22:19:53.665Z,42.63
2022-08-10T22:22:56.232Z,42.62
2022-08-10T22:25:53.407Z,42.91
2022-08-10T22:28:38.969Z,42.99
2022-08-10T22:31:27.957Z,41.88
2022-08-10T22:31:47.853Z,42.92
2022-08-10T22:34:47.894Z,42.63
2022-08-10T22:37:52.157Z,42.83
2022-08-10T22:40:39.791Z,43.10
2022-08-10T22:43:35.776Z,42.95
2022-08-10T22:46:30.001Z,42.66
2022-08-10T22:48:59.862Z,42.99
2022-08-10T22:51:37.433Z,42.95
2022-08-10T22:54:32.377Z,42.90
2022-08-10T22:57:20.065Z,42.91
2022-08-10T22:59:50.273Z,43.07
2022-08-10T23:02:30.080Z,42.79
2022-08-10T23:05:05.940Z,43.14
2022-08-10T23:07:36.988Z,42.89
2022-08-10T23:10:10.341Z,43.18
2022-08-10T23:12:42.946Z,42.91
2022-08-10T23:15:38.280Z,42.95
2022-08-10T23:18:26.495Z,43.08
2022-08-10T23:20:57.681Z,43.23
2022-08-10T23:23:28.814Z,43.12
2022-08-10T23:26:01.598Z,43.30
2022-08-10T23:28:38.817Z,43.30
2022-08-10T23:31:50.370Z,43.29
2022-08-10T23:34:14.719Z,43.22
2022-08-10T23:36:43.727Z,43.42
2022-08-10T23:39:26.260Z,43.68
2022-08-10T23:42:07.562Z,43.53
2022-08-10T23:44:44.490Z,43.43
2022-08-10T23:47:15.616Z,43.78
2022-08-10T23:49:45.694Z,43.42
2022-08-10T23:52:18.080Z,43.69
2022-08-10T23:54:49.415Z,43.88
2022-08-10T23:57:21.278Z,43.76
2022-08-10T23:59:55.741Z,43.51
